KMGJ/MGJ METAR and TAF weather

Enter ICAO airport designator
Station Type Date Time Source
KMGJ METAR 2021/01/16 01:54 UTC NOAA

KMGJ 160154Z AUTO 02003KT 8SM OVC015 02/01 A2986 RMK AO2 SLP114 T00220011


Station Type Date Time Source
KMGJ Decoded METAR 2021/01/16 01:54 UTC NOAA

MONTGOMERY ORANGE CO AIRPORT, NY, United States (KMGJ) 41-31N 074-16W 108M
Jan 15, 2021 - 08:54 PM EST / 2021.01.16 0154 UTC
Wind: from the NNE (020 degrees) at 3 MPH (3 KT):0
Visibility: 8 mile(s):0
Sky conditions: overcast
Temperature: 36.0 F (2.2 C)
Dew Point: 34.0 F (1.1 C)
Relative Humidity: 92%
Pressure (altimeter): 29.86 in. Hg (1011 hPa)
ob: KMGJ 160154Z AUTO 02003KT 8SM OVC015 02/01 A2986 RMK AO2 SLP114 T00220011
cycle: 2

Station Type Date Time Source
KMGJ TAF UTC NOAA

Error!

Example: see airport list